createdAt,value
2019-02-10T00:00:24.452Z,1000.25
2019-02-10T00:01:24.476Z,1000.20
2019-02-10T00:02:24.488Z,1000.13
2019-02-10T00:03:24.511Z,1000.12
2019-02-10T00:04:24.537Z,1000.13
2019-02-10T00:05:24.544Z,1000.10
2019-02-10T00:06:25.089Z,1000.12
2019-02-10T00:07:24.602Z,1000.12
2019-02-10T00:08:24.585Z,1000.06
2019-02-10T00:09:24.616Z,1000.04
2019-02-10T00:10:24.618Z,1000.02
2019-02-10T00:11:24.642Z,1000.00
2019-02-10T00:12:24.656Z,1000.00
2019-02-10T00:13:24.673Z,1000.01
2019-02-10T00:14:24.681Z,1000.07
2019-02-10T00:15:24.702Z,1000.06
2019-02-10T00:16:24.714Z,1000.08
2019-02-10T00:17:24.747Z,1000.08
2019-02-10T00:18:24.757Z,1000.13
2019-02-10T00:19:24.819Z,1000.14
2019-02-10T00:20:24.786Z,1000.16
2019-02-10T00:21:24.801Z,1000.15
2019-02-10T00:22:24.819Z,1000.10
2019-02-10T00:23:24.839Z,1000.05
2019-02-10T00:24:24.861Z,1000.05
2019-02-10T00:25:24.869Z,1000.01
2019-02-10T00:26:24.894Z,999.95
2019-02-10T00:27:24.920Z,999.92
2019-02-10T00:28:24.914Z,999.92
2019-02-10T00:29:25.045Z,999.92
2019-02-10T00:30:24.947Z,999.91
2019-02-10T00:31:24.975Z,999.92
2019-02-10T00:32:24.989Z,999.88
2019-02-10T00:33:25.000Z,999.81
2019-02-10T00:35:25.038Z,999.79
2019-02-10T00:36:32.678Z,999.77
2019-02-10T00:37:25.072Z,999.78
2019-02-10T00:38:25.091Z,999.72
2019-02-10T00:39:25.220Z,999.68
2019-02-10T00:40:25.121Z,999.68
2019-02-10T00:41:25.157Z,999.67
2019-02-10T00:42:25.150Z,999.63
2019-02-10T00:43:25.173Z,999.61
2019-02-10T00:44:25.185Z,999.54
2019-02-10T00:45:25.208Z,999.55
2019-02-10T00:46:25.225Z,999.55
2019-02-10T00:47:25.231Z,999.55
2019-02-10T00:48:25.250Z,999.53
2019-02-10T00:49:25.332Z,999.51
2019-02-10T00:50:25.280Z,999.47
2019-02-10T00:51:25.299Z,999.47
2019-02-10T00:52:25.318Z,999.44
2019-02-10T00:53:25.373Z,999.43
2019-02-10T00:54:25.358Z,999.40
2019-02-10T00:55:25.368Z,999.33
2019-02-10T00:56:25.391Z,999.29
2019-02-10T00:57:25.405Z,999.32
2019-02-10T00:58:25.414Z,999.29
2019-02-10T00:59:25.456Z,999.29
2019-02-10T01:00:25.466Z,999.27
2019-02-10T01:01:25.836Z,999.29
2019-02-10T01:02:25.488Z,999.27
2019-02-10T01:03:25.519Z,999.25
2019-02-10T01:04:25.524Z,999.23
2019-02-10T01:05:25.529Z,999.20
2019-02-10T01:06:25.558Z,999.15
2019-02-10T01:07:25.565Z,999.18
2019-02-10T01:08:25.581Z,999.20
2019-02-10T01:09:25.600Z,999.14
2019-02-10T01:10:25.618Z,999.15
2019-02-10T01:11:25.638Z,999.19
2019-02-10T01:12:25.648Z,999.14
2019-02-10T01:13:25.669Z,999.14
2019-02-10T01:14:25.709Z,999.13
2019-02-10T01:15:25.700Z,999.11
2019-02-10T01:16:25.722Z,999.07
2019-02-10T01:17:25.732Z,999.05
2019-02-10T01:18:25.756Z,999.00
2019-02-10T01:19:25.761Z,998.96
2019-02-10T01:20:25.777Z,998.94
2019-02-10T01:21:25.986Z,998.90
2019-02-10T01:22:25.814Z,998.83
2019-02-10T01:23:25.835Z,998.88
2019-02-10T01:24:25.883Z,998.86
2019-02-10T01:25:25.873Z,998.84
2019-02-10T01:26:25.880Z,998.86
2019-02-10T01:27:25.902Z,998.82
2019-02-10T01:28:25.906Z,998.78
2019-02-10T01:29:25.920Z,998.76
2019-02-10T01:30:25.945Z,998.74
2019-02-10T01:31:26.064Z,998.69
2019-02-10T01:32:25.974Z,998.70
2019-02-10T01:33:25.990Z,998.65
2019-02-10T01:34:26.046Z,998.60
2019-02-10T01:35:26.025Z,998.57
2019-02-10T01:36:26.052Z,998.61
2019-02-10T01:37:26.053Z,998.62
2019-02-10T01:38:26.075Z,998.53
2019-02-10T01:39:26.100Z,998.52
2019-02-10T01:40:26.103Z,998.45
2019-02-10T01:41:26.166Z,998.42
2019-02-10T01:42:26.162Z,998.38
2019-02-10T01:43:26.153Z,998.35
2019-02-10T01:44:26.170Z,998.31
2019-02-10T01:45:26.188Z,998.28
2019-02-10T01:46:26.221Z,998.26
2019-02-10T01:47:26.224Z,998.22
2019-02-10T01:48:27.425Z,998.21
2019-02-10T01:49:26.252Z,998.14
2019-02-10T01:50:26.268Z,998.08
2019-02-10T01:51:26.419Z,998.06
2019-02-10T01:52:26.297Z,998.03
2019-02-10T01:53:26.321Z,998.00
2019-02-10T01:54:26.332Z,997.96
2019-02-10T01:55:26.361Z,997.98
2019-02-10T01:56:26.456Z,997.94
2019-02-10T01:57:26.391Z,997.91
2019-02-10T01:58:26.401Z,997.84
2019-02-10T01:59:26.426Z,997.79
2019-02-10T02:00:26.437Z,997.81
2019-02-10T02:01:26.446Z,997.82
2019-02-10T02:02:26.467Z,997.78
2019-02-10T02:03:26.481Z,997.75
2019-02-10T02:04:26.498Z,997.71
2019-02-10T02:05:26.523Z,997.69
2019-02-10T02:06:26.574Z,997.69
2019-02-10T02:07:26.547Z,997.63
2019-02-10T02:08:26.564Z,997.64
2019-02-10T02:09:26.578Z,997.60
2019-02-10T02:10:26.595Z,997.57
2019-02-10T02:11:26.612Z,997.55
2019-02-10T02:12:26.641Z,997.55
2019-02-10T02:13:26.792Z,997.55
2019-02-10T02:14:26.659Z,997.54
2019-02-10T02:15:26.675Z,997.49
2019-02-10T02:16:26.697Z,997.48
2019-02-10T02:17:26.716Z,997.43
2019-02-10T02:18:26.733Z,997.36
2019-02-10T02:19:26.747Z,997.37
2019-02-10T02:20:26.755Z,997.36
2019-02-10T02:21:26.771Z,997.36
2019-02-10T02:22:26.796Z,997.29
2019-02-10T02:23:26.854Z,997.28
2019-02-10T02:24:26.829Z,997.23
2019-02-10T02:25:26.838Z,997.16
2019-02-10T02:26:26.859Z,997.10
2019-02-10T02:27:26.871Z,997.00
2019-02-10T02:28:26.886Z,997.05
2019-02-10T02:29:26.900Z,997.03
2019-02-10T02:30:26.931Z,997.09
2019-02-10T02:31:26.937Z,997.00
2019-02-10T02:32:26.965Z,997.01
2019-02-10T02:33:27.130Z,996.96
2019-02-10T02:34:27.009Z,996.91
2019-02-10T02:35:27.010Z,996.90
2019-02-10T02:36:27.011Z,996.83
2019-02-10T02:37:27.030Z,996.77
2019-02-10T02:38:27.059Z,996.71
2019-02-10T02:39:27.081Z,996.72
2019-02-10T02:40:27.095Z,996.74
2019-02-10T02:41:27.098Z,996.72
2019-02-10T02:42:27.153Z,996.73
2019-02-10T02:43:27.139Z,996.70
2019-02-10T02:44:27.146Z,996.64
2019-02-10T02:45:27.159Z,996.58
2019-02-10T02:46:27.188Z,996.55
2019-02-10T02:47:27.197Z,996.51
2019-02-10T02:48:27.206Z,996.48
2019-02-10T02:49:27.227Z,996.47
2019-02-10T02:50:27.239Z,996.46
2019-02-10T02:51:27.261Z,996.48
2019-02-10T02:52:27.279Z,996.47
2019-02-10T02:53:27.299Z,996.38
2019-02-10T02:54:27.311Z,996.35
2019-02-10T02:55:27.323Z,996.32
2019-02-10T02:56:27.340Z,996.34
2019-02-10T02:57:27.362Z,996.30
2019-02-10T02:58:27.421Z,996.30
2019-02-10T02:59:27.389Z,996.28
2019-02-10T03:00:27.405Z,996.27
2019-02-10T03:01:27.421Z,996.23
2019-02-10T03:02:27.453Z,996.20
2019-02-10T03:03:27.456Z,996.17
2019-02-10T03:04:27.472Z,996.24
2019-02-10T03:05:27.491Z,996.23
2019-02-10T03:06:27.501Z,996.19
2019-02-10T03:07:27.518Z,996.21
2019-02-10T03:08:27.538Z,996.16
2019-02-10T03:09:27.581Z,996.16
2019-02-10T03:10:27.569Z,996.14
2019-02-10T03:11:27.578Z,996.08
2019-02-10T03:12:27.600Z,996.05
2019-02-10T03:13:27.624Z,996.05
2019-02-10T03:14:27.631Z,996.03
2019-02-10T03:15:27.823Z,996.02
2019-02-10T03:16:27.679Z,996.00
2019-02-10T03:17:27.680Z,995.93
2019-02-10T03:18:27.701Z,995.94
2019-02-10T03:19:27.713Z,995.86
2019-02-10T03:20:27.727Z,995.84
2019-02-10T03:21:27.746Z,995.82
2019-02-10T03:22:27.767Z,995.79
2019-02-10T03:23:27.783Z,995.76
2019-02-10T03:24:27.790Z,995.72
2019-02-10T03:25:27.826Z,995.68
2019-02-10T03:26:27.833Z,995.65
2019-02-10T03:27:27.855Z,995.60
2019-02-10T03:28:27.862Z,995.53
2019-02-10T03:29:27.875Z,995.50
2019-02-10T03:30:27.886Z,995.48
2019-02-10T03:31:27.918Z,995.49
2019-02-10T03:32:27.920Z,995.49
2019-02-10T03:33:27.941Z,995.43
2019-02-10T03:34:27.952Z,995.38
2019-02-10T03:35:28.082Z,995.37
2019-02-10T03:36:27.982Z,995.32
2019-02-10T03:37:28.001Z,995.24
2019-02-10T03:38:28.029Z,995.22
2019-02-10T03:39:28.031Z,995.13
2019-02-10T03:40:28.052Z,995.18
2019-02-10T03:41:28.067Z,995.13
2019-02-10T03:42:28.083Z,995.16
2019-02-10T03:43:28.094Z,995.18
2019-02-10T03:44:28.112Z,995.17
2019-02-10T03:45:28.133Z,995.14
2019-02-10T03:46:28.145Z,995.16
2019-02-10T03:47:28.162Z,995.18
2019-02-10T03:48:28.182Z,995.14
2019-02-10T03:49:28.193Z,995.16
2019-02-10T03:50:28.251Z,995.14
2019-02-10T03:51:28.222Z,995.14
2019-02-10T03:52:28.249Z,995.09
2019-02-10T03:53:28.254Z,995.10
2019-02-10T03:54:28.272Z,995.11
2019-02-10T03:55:28.284Z,995.16
2019-02-10T03:56:28.302Z,995.05
2019-02-10T03:57:28.316Z,995.00
2019-02-10T03:58:28.337Z,995.00
2019-02-10T03:59:28.347Z,995.00
2019-02-10T04:00:28.439Z,995.00
2019-02-10T04:01:28.382Z,995.00
2019-02-10T04:02:28.406Z,994.91
2019-02-10T04:03:28.422Z,994.89
2019-02-10T04:04:28.431Z,994.84
2019-02-10T04:05:28.459Z,994.90
2019-02-10T04:06:28.464Z,994.87
2019-02-10T04:07:35.978Z,994.88
2019-02-10T04:08:28.495Z,994.88
2019-02-10T04:09:28.515Z,994.87
2019-02-10T04:10:28.546Z,994.81
2019-02-10T04:11:28.544Z,994.76
2019-02-10T04:12:28.561Z,994.71
2019-02-10T04:13:28.580Z,994.64
2019-02-10T04:14:28.594Z,994.63
2019-02-10T04:15:28.608Z,994.64
2019-02-10T04:16:28.617Z,994.64
2019-02-10T04:17:28.646Z,994.60
2019-02-10T04:18:28.656Z,994.64
2019-02-10T04:19:28.673Z,994.62
2019-02-10T04:20:28.714Z,994.64
2019-02-10T04:21:28.703Z,994.61
2019-02-10T04:22:28.722Z,994.58
2019-02-10T04:23:28.745Z,994.58
2019-02-10T04:24:28.746Z,994.57
2019-02-10T04:25:28.766Z,994.46
2019-02-10T04:26:28.787Z,994.44
2019-02-10T04:27:28.829Z,994.44
2019-02-10T04:28:28.826Z,994.39
2019-02-10T04:29:28.826Z,994.34
2019-02-10T04:30:28.905Z,994.26
2019-02-10T04:31:28.863Z,994.22
2019-02-10T04:32:28.882Z,994.21
2019-02-10T04:33:28.901Z,994.17
2019-02-10T04:34:28.908Z,994.17
2019-02-10T04:35:28.986Z,994.10
2019-02-10T04:36:28.940Z,994.10
2019-02-10T04:37:28.956Z,994.05
2019-02-10T04:38:28.973Z,994.14
2019-02-10T04:39:28.988Z,994.11
2019-02-10T04:40:29.060Z,994.17
2019-02-10T04:41:29.030Z,994.19
2019-02-10T04:42:29.188Z,994.15
2019-02-10T04:43:29.053Z,994.12
2019-02-10T04:44:29.073Z,994.09
2019-02-10T04:45:29.080Z,994.06
2019-02-10T04:46:29.098Z,994.03
2019-02-10T04:47:29.119Z,994.02
2019-02-10T04:48:29.130Z,993.97
2019-02-10T04:49:29.149Z,993.90
2019-02-10T04:50:29.160Z,993.86
2019-02-10T04:51:29.174Z,993.80
2019-02-10T04:52:29.255Z,993.73
2019-02-10T04:53:29.231Z,993.68
2019-02-10T04:54:29.225Z,993.70
2019-02-10T04:55:29.245Z,993.63
2019-02-10T04:56:29.256Z,993.64
2019-02-10T04:57:29.275Z,993.60
2019-02-10T04:58:29.296Z,993.60
2019-02-10T04:59:29.305Z,993.54
2019-02-10T05:00:29.317Z,993.54
2019-02-10T05:02:29.351Z,993.56
2019-02-10T05:03:29.368Z,993.56
2019-02-10T05:04:29.391Z,993.53
2019-02-10T05:05:29.409Z,993.50
2019-02-10T05:06:29.439Z,993.48
2019-02-10T05:07:29.438Z,993.48
2019-02-10T05:08:29.451Z,993.44
2019-02-10T05:09:29.461Z,993.42
2019-02-10T05:10:29.485Z,993.36
2019-02-10T05:11:29.517Z,993.34
2019-02-10T05:12:29.565Z,993.29
2019-02-10T05:13:29.530Z,993.26
2019-02-10T05:14:29.546Z,993.21
2019-02-10T05:15:29.559Z,993.22
2019-02-10T05:16:29.599Z,993.21
2019-02-10T05:17:29.594Z,993.14
2019-02-10T05:18:29.617Z,993.17
2019-02-10T05:19:29.621Z,993.07
2019-02-10T05:20:29.639Z,993.09
2019-02-10T05:21:29.671Z,993.05
2019-02-10T05:22:29.718Z,993.08
2019-02-10T05:23:29.687Z,993.02
2019-02-10T05:24:29.700Z,993.00
2019-02-10T05:25:29.716Z,992.99
2019-02-10T05:26:29.736Z,992.98
2019-02-10T05:27:29.753Z,992.96
2019-02-10T05:28:29.769Z,992.94
2019-02-10T05:29:29.780Z,992.93
2019-02-10T05:30:29.800Z,992.91
2019-02-10T05:31:29.814Z,992.88
2019-02-10T05:32:29.843Z,992.79
2019-02-10T05:33:29.847Z,992.84
2019-02-10T05:34:29.993Z,992.85
2019-02-10T05:35:29.883Z,992.79
2019-02-10T05:37:29.913Z,992.77
2019-02-10T05:38:29.930Z,992.69
2019-02-10T05:39:29.944Z,992.71
2019-02-10T05:40:29.956Z,992.66
2019-02-10T05:41:29.979Z,992.70
2019-02-10T05:42:29.992Z,992.69
2019-02-10T05:43:30.007Z,992.62
2019-02-10T05:44:30.060Z,992.61
2019-02-10T05:45:30.037Z,992.62
2019-02-10T05:46:30.100Z,992.60
2019-02-10T05:47:30.071Z,992.63
2019-02-10T05:48:30.086Z,992.65
2019-02-10T05:49:30.104Z,992.60
2019-02-10T05:50:30.145Z,992.59
2019-02-10T05:51:30.146Z,992.61
2019-02-10T05:52:30.150Z,992.59
2019-02-10T05:53:30.171Z,992.62
2019-02-10T05:54:30.277Z,992.64
2019-02-10T05:55:30.200Z,992.54
2019-02-10T05:56:30.216Z,992.58
2019-02-10T05:57:30.242Z,992.58
2019-02-10T05:58:30.255Z,992.64
2019-02-10T05:59:30.263Z,992.65
2019-02-10T06:00:30.275Z,992.51
2019-02-10T06:01:30.293Z,992.49
2019-02-10T06:02:30.315Z,992.45
2019-02-10T06:03:30.325Z,992.30
2019-02-10T06:04:30.427Z,992.30
2019-02-10T06:05:30.374Z,992.22
2019-02-10T06:06:30.375Z,992.21
2019-02-10T06:07:30.409Z,992.19
2019-02-10T06:08:30.408Z,992.15
2019-02-10T06:09:30.429Z,992.13
2019-02-10T06:10:30.449Z,992.17
2019-02-10T06:11:30.459Z,992.14
2019-02-10T06:12:30.483Z,992.27
2019-02-10T06:13:30.502Z,992.10
2019-02-10T06:14:30.582Z,992.06
2019-02-10T06:15:30.534Z,992.16
2019-02-10T06:16:30.540Z,992.04
2019-02-10T06:17:30.558Z,992.01
2019-02-10T06:18:30.574Z,992.05
2019-02-10T06:19:30.593Z,991.97
2019-02-10T06:20:30.612Z,992.02
2019-02-10T06:21:30.622Z,992.04
2019-02-10T06:22:30.640Z,991.96
2019-02-10T06:23:30.663Z,991.95
2019-02-10T06:24:30.674Z,992.04
2019-02-10T06:25:30.707Z,991.89
2019-02-10T06:26:30.704Z,991.92
2019-02-10T06:27:30.725Z,991.91
2019-02-10T06:28:30.739Z,991.94
2019-02-10T06:29:30.763Z,991.89
2019-02-10T06:30:30.774Z,991.81
2019-02-10T06:31:30.816Z,992.00
2019-02-10T06:32:30.806Z,991.81
2019-02-10T06:33:30.831Z,991.74
2019-02-10T06:34:30.861Z,991.72
2019-02-10T06:35:30.865Z,991.69
2019-02-10T06:36:30.880Z,991.64
2019-02-10T06:37:30.895Z,991.64
2019-02-10T06:38:30.919Z,991.59
2019-02-10T06:39:30.921Z,991.64
2019-02-10T06:40:30.944Z,991.55
2019-02-10T06:41:30.956Z,991.48
2019-02-10T06:42:30.980Z,991.49
2019-02-10T06:43:30.987Z,991.41
2019-02-10T06:44:31.006Z,991.37
2019-02-10T06:45:31.023Z,991.36
2019-02-10T06:46:31.038Z,991.38
2019-02-10T06:47:31.057Z,991.34
2019-02-10T06:48:31.076Z,991.34
2019-02-10T06:49:31.098Z,991.31
2019-02-10T06:50:31.103Z,991.24
2019-02-10T06:51:31.120Z,991.26
2019-02-10T06:53:31.162Z,991.15
2019-02-10T06:54:31.168Z,991.08
2019-02-10T06:55:31.186Z,991.01
2019-02-10T06:56:31.316Z,990.97
2019-02-10T06:57:31.224Z,990.90
2019-02-10T06:58:31.237Z,990.79
2019-02-10T06:59:31.262Z,990.80
2019-02-10T07:00:31.273Z,990.76
2019-02-10T07:01:31.304Z,990.75
2019-02-10T07:02:31.310Z,990.77
2019-02-10T07:03:31.336Z,990.73
2019-02-10T07:04:31.344Z,990.73
2019-02-10T07:05:31.360Z,990.61
2019-02-10T07:06:31.467Z,990.67
2019-02-10T07:07:31.389Z,990.56
2019-02-10T07:08:31.605Z,990.48
2019-02-10T07:09:31.625Z,990.49
2019-02-10T07:10:31.443Z,990.51
2019-02-10T07:11:31.503Z,990.48
2019-02-10T07:12:31.472Z,990.51
2019-02-10T07:13:31.487Z,990.52
2019-02-10T07:14:31.518Z,990.51
2019-02-10T07:15:31.529Z,990.45
2019-02-10T07:16:31.542Z,990.47
2019-02-10T07:17:31.555Z,990.45
2019-02-10T07:18:31.579Z,990.49
2019-02-10T07:19:31.606Z,990.44
2019-02-10T07:20:31.610Z,990.51
2019-02-10T07:21:31.632Z,990.36
2019-02-10T07:22:31.651Z,990.47
2019-02-10T07:23:31.658Z,990.33
2019-02-10T07:24:31.670Z,990.26
2019-02-10T07:25:31.694Z,990.37
2019-02-10T07:26:31.708Z,990.36
2019-02-10T07:27:31.729Z,990.33
2019-02-10T07:28:31.849Z,990.34
2019-02-10T07:29:31.760Z,990.31
2019-02-10T07:30:31.778Z,990.35
2019-02-10T07:31:31.802Z,990.40
2019-02-10T07:32:31.812Z,990.28
2019-02-10T07:33:31.833Z,990.28
2019-02-10T07:34:31.854Z,990.37
2019-02-10T07:35:31.860Z,990.25
2019-02-10T07:36:31.877Z,990.23
2019-02-10T07:37:31.895Z,990.22
2019-02-10T07:38:38.552Z,990.25
2019-02-10T07:39:31.931Z,990.18
2019-02-10T07:40:31.945Z,990.07
2019-02-10T07:41:31.967Z,990.20
2019-02-10T07:42:31.979Z,990.16
2019-02-10T07:43:32.001Z,990.09
2019-02-10T07:44:32.015Z,990.25
2019-02-10T07:45:32.035Z,990.00
2019-02-10T07:46:32.056Z,990.01
2019-02-10T07:47:32.068Z,989.98
2019-02-10T07:48:32.199Z,990.02
2019-02-10T07:49:32.161Z,989.98
2019-02-10T07:50:32.117Z,989.97
2019-02-10T07:51:32.137Z,990.06
2019-02-10T07:52:32.148Z,990.11
2019-02-10T07:53:32.191Z,989.92
2019-02-10T07:54:32.191Z,989.85
2019-02-10T07:55:32.209Z,989.96
2019-02-10T07:56:32.225Z,989.98
2019-02-10T07:57:32.239Z,989.91
2019-02-10T07:58:32.357Z,989.89
2019-02-10T07:59:32.275Z,989.82
2019-02-10T08:00:32.293Z,989.87
2019-02-10T08:01:32.311Z,989.81
2019-02-10T08:02:32.321Z,989.82
2019-02-10T08:03:32.342Z,989.87
2019-02-10T08:04:32.360Z,989.84
2019-02-10T08:05:32.384Z,989.77
2019-02-10T08:06:32.394Z,989.63
2019-02-10T08:07:32.413Z,989.82
2019-02-10T08:08:32.487Z,989.67
2019-02-10T08:09:32.443Z,989.72
2019-02-10T08:10:32.467Z,989.75
2019-02-10T08:11:32.480Z,989.62
2019-02-10T08:12:32.506Z,989.61
2019-02-10T08:13:33.222Z,989.62
2019-02-10T08:14:32.537Z,989.62
2019-02-10T08:15:32.552Z,989.64
2019-02-10T08:16:32.568Z,989.61
2019-02-10T08:17:32.588Z,989.53
2019-02-10T08:18:32.604Z,989.58
2019-02-10T08:19:32.619Z,989.43
2019-02-10T08:20:32.792Z,989.52
2019-02-10T08:21:32.653Z,989.55
2019-02-10T08:22:32.678Z,989.63
2019-02-10T08:23:32.694Z,989.53
2019-02-10T08:24:32.708Z,989.38
2019-02-10T08:25:32.726Z,989.43
2019-02-10T08:26:32.740Z,989.40
2019-02-10T08:27:32.768Z,989.48
2019-02-10T08:28:32.784Z,989.36
2019-02-10T08:29:32.797Z,989.39
2019-02-10T08:30:32.889Z,989.28
2019-02-10T08:31:32.825Z,989.32
2019-02-10T08:32:32.850Z,989.30
2019-02-10T08:33:32.872Z,989.39
2019-02-10T08:34:32.877Z,989.25
2019-02-10T08:35:32.898Z,989.21
2019-02-10T08:36:32.915Z,989.10
2019-02-10T08:37:32.930Z,989.17
2019-02-10T08:38:32.952Z,989.19
2019-02-10T08:39:32.965Z,989.31
2019-02-10T08:40:33.000Z,989.20
2019-02-10T08:41:33.005Z,989.06
2019-02-10T08:42:33.023Z,989.07
2019-02-10T08:43:33.054Z,988.99
2019-02-10T08:44:33.058Z,989.07
2019-02-10T08:45:33.070Z,988.98
2019-02-10T08:46:33.090Z,989.06
2019-02-10T08:47:33.918Z,988.82
2019-02-10T08:48:33.145Z,988.91
2019-02-10T08:49:33.148Z,988.87
2019-02-10T08:50:33.175Z,988.79
2019-02-10T08:51:33.176Z,988.93
2019-02-10T08:52:33.223Z,988.91
2019-02-10T08:53:33.231Z,988.64
2019-02-10T08:54:33.229Z,988.67
2019-02-10T08:55:33.268Z,988.69
2019-02-10T08:56:33.286Z,988.63
2019-02-10T08:57:33.297Z,988.55
2019-02-10T08:58:33.299Z,988.79
2019-02-10T08:59:33.320Z,988.54
2019-02-10T09:00:33.402Z,988.62
2019-02-10T09:01:33.352Z,988.39
2019-02-10T09:02:33.372Z,988.37
2019-02-10T09:03:33.385Z,988.31
2019-02-10T09:04:33.411Z,988.43
2019-02-10T09:05:33.477Z,988.36
2019-02-10T09:06:33.439Z,988.38
2019-02-10T09:07:33.466Z,988.25
2019-02-10T09:08:33.494Z,988.21
2019-02-10T09:09:33.501Z,988.13
2019-02-10T09:10:33.515Z,988.28
2019-02-10T09:11:33.529Z,988.16
2019-02-10T09:12:33.660Z,988.25
2019-02-10T09:13:33.562Z,988.30
2019-02-10T09:14:33.582Z,988.29
2019-02-10T09:15:33.667Z,988.32
2019-02-10T09:16:33.620Z,988.17
2019-02-10T09:17:33.647Z,988.26
2019-02-10T09:18:33.656Z,988.16
2019-02-10T09:19:33.679Z,988.17
2019-02-10T09:20:33.696Z,988.16
2019-02-10T09:21:33.711Z,988.17
2019-02-10T09:22:33.872Z,988.08
2019-02-10T09:23:33.750Z,987.94
2019-02-10T09:24:33.764Z,987.90
2019-02-10T09:25:33.781Z,988.13
2019-02-10T09:26:33.801Z,987.96
2019-02-10T09:27:33.836Z,987.84
2019-02-10T09:28:33.837Z,987.86
2019-02-10T09:29:33.866Z,987.90
2019-02-10T09:30:33.884Z,987.70
2019-02-10T09:31:33.899Z,987.76
2019-02-10T09:32:34.006Z,987.77
2019-02-10T09:33:33.940Z,987.57
2019-02-10T09:34:33.961Z,987.69
2019-02-10T09:35:33.974Z,987.70
2019-02-10T09:36:33.985Z,987.61
2019-02-10T09:37:34.022Z,987.80
2019-02-10T09:38:34.024Z,987.59
2019-02-10T09:39:34.045Z,987.47
2019-02-10T09:40:34.063Z,987.46
2019-02-10T09:41:34.088Z,987.49
2019-02-10T09:42:34.141Z,987.44
2019-02-10T09:43:34.125Z,987.54
2019-02-10T09:44:34.147Z,987.58
2019-02-10T09:45:34.161Z,987.49
2019-02-10T09:46:34.189Z,987.51
2019-02-10T09:47:34.199Z,987.32
2019-02-10T09:48:34.227Z,987.43
2019-02-10T09:49:34.233Z,987.41
2019-02-10T09:50:34.258Z,987.36
2019-02-10T09:51:34.275Z,987.35
2019-02-10T09:52:34.365Z,987.74
2019-02-10T09:53:34.333Z,987.46
2019-02-10T09:54:34.336Z,987.47
2019-02-10T09:55:34.352Z,987.33
2019-02-10T09:56:34.371Z,987.27
2019-02-10T09:57:34.397Z,987.28
2019-02-10T09:58:34.410Z,987.27
2019-02-10T09:59:34.449Z,987.42
2019-02-10T10:00:34.448Z,987.13
2019-02-10T10:01:34.475Z,987.19
2019-02-10T10:02:34.489Z,987.34
2019-02-10T10:03:34.507Z,987.35
2019-02-10T10:04:34.643Z,987.28
2019-02-10T10:05:34.563Z,987.17
2019-02-10T10:06:35.641Z,987.19
2019-02-10T10:07:34.593Z,987.35
2019-02-10T10:08:34.615Z,987.15
2019-02-10T10:09:34.628Z,987.43
2019-02-10T10:10:34.665Z,987.16
2019-02-10T10:11:34.669Z,987.19
2019-02-10T10:12:34.701Z,987.34
2019-02-10T10:13:34.732Z,987.20
2019-02-10T10:14:34.790Z,987.20
2019-02-10T10:15:34.758Z,987.26
2019-02-10T10:16:34.774Z,987.27
2019-02-10T10:17:34.817Z,987.14
2019-02-10T10:18:34.810Z,987.34
2019-02-10T10:19:34.837Z,987.24
2019-02-10T10:20:34.842Z,987.26
2019-02-10T10:21:34.985Z,987.23
2019-02-10T10:22:34.888Z,987.26
2019-02-10T10:23:34.915Z,987.21
2019-02-10T10:24:34.928Z,987.18
2019-02-10T10:25:34.949Z,987.21
2019-02-10T10:26:34.985Z,987.04
2019-02-10T10:27:34.986Z,987.18
2019-02-10T10:28:35.003Z,987.10
2019-02-10T10:29:35.030Z,987.05
2019-02-10T10:30:35.045Z,987.05
2019-02-10T10:31:35.091Z,987.09
2019-02-10T10:32:35.077Z,987.09
2019-02-10T10:33:35.113Z,987.15
2019-02-10T10:34:35.138Z,987.08
2019-02-10T10:35:35.146Z,987.01
2019-02-10T10:36:35.155Z,986.97
2019-02-10T10:37:35.169Z,987.04
2019-02-10T10:38:35.199Z,987.15
2019-02-10T10:39:35.211Z,987.16
2019-02-10T10:40:35.238Z,986.96
2019-02-10T10:41:35.337Z,987.24
2019-02-10T10:42:35.264Z,987.13
2019-02-10T10:43:35.284Z,987.07
2019-02-10T10:44:35.301Z,986.86
2019-02-10T10:45:35.319Z,986.87
2019-02-10T10:46:35.337Z,986.95
2019-02-10T10:47:35.370Z,987.03
2019-02-10T10:48:35.377Z,987.35
2019-02-10T10:49:35.397Z,987.12
2019-02-10T10:50:35.419Z,986.98
2019-02-10T10:51:35.440Z,986.86
2019-02-10T10:52:35.449Z,986.79
2019-02-10T10:53:35.476Z,986.78
2019-02-10T10:54:42.638Z,986.85
2019-02-10T10:55:35.519Z,986.66
2019-02-10T10:56:35.558Z,986.83
2019-02-10T10:57:35.544Z,986.64
2019-02-10T10:58:35.562Z,986.53
2019-02-10T10:59:35.581Z,986.58
2019-02-10T11:00:35.599Z,986.60
2019-02-10T11:01:35.624Z,986.38
2019-02-10T11:02:35.636Z,986.40
2019-02-10T11:03:35.781Z,986.46
2019-02-10T11:04:35.667Z,986.48
2019-02-10T11:05:35.700Z,986.26
2019-02-10T11:06:35.707Z,986.44
2019-02-10T11:07:35.731Z,986.15
2019-02-10T11:08:35.741Z,986.15
2019-02-10T11:09:35.926Z,986.13
2019-02-10T11:10:35.783Z,986.13
2019-02-10T11:11:35.810Z,985.94
2019-02-10T11:12:35.822Z,986.10
2019-02-10T11:13:35.845Z,986.24
2019-02-10T11:14:35.868Z,986.06
2019-02-10T11:15:35.886Z,985.86
2019-02-10T11:16:35.899Z,985.79
2019-02-10T11:17:35.910Z,985.91
2019-02-10T11:18:35.929Z,985.83
2019-02-10T11:19:35.959Z,986.22
2019-02-10T11:20:35.973Z,986.14
2019-02-10T11:21:35.990Z,985.86
2019-02-10T11:22:36.010Z,985.94
2019-02-10T11:23:36.155Z,986.05
2019-02-10T11:24:36.040Z,986.20
2019-02-10T11:25:36.067Z,986.01
2019-02-10T11:26:36.081Z,985.98
2019-02-10T11:27:36.113Z,985.97
2019-02-10T11:28:36.125Z,985.95
2019-02-10T11:29:36.139Z,985.88
2019-02-10T11:30:36.161Z,985.84
2019-02-10T11:31:36.169Z,985.57
2019-02-10T11:32:36.195Z,985.73
2019-02-10T11:33:36.268Z,985.75
2019-02-10T11:34:36.236Z,985.72
2019-02-10T11:35:36.257Z,985.91
2019-02-10T11:36:36.273Z,985.69
2019-02-10T11:37:36.295Z,985.96
2019-02-10T11:38:36.315Z,986.03
2019-02-10T11:39:43.434Z,985.76
2019-02-10T11:40:36.362Z,985.92
2019-02-10T11:41:36.369Z,985.79
2019-02-10T11:42:36.385Z,985.86
2019-02-10T11:43:36.415Z,985.70
2019-02-10T11:44:36.428Z,985.66
2019-02-10T11:45:36.586Z,985.79
2019-02-10T11:46:36.471Z,985.54
2019-02-10T11:47:36.489Z,985.84
2019-02-10T11:48:36.502Z,985.71
2019-02-10T11:49:36.520Z,985.57
2019-02-10T11:50:36.527Z,985.84
2019-02-10T11:51:36.556Z,985.65
2019-02-10T11:52:36.565Z,985.58
2019-02-10T11:53:36.594Z,985.41
2019-02-10T11:54:36.617Z,985.57
2019-02-10T11:55:36.745Z,985.41
2019-02-10T11:56:36.646Z,985.35
2019-02-10T11:57:36.665Z,985.50
2019-02-10T11:58:36.679Z,985.24
2019-02-10T11:59:36.828Z,985.38
2019-02-10T12:00:36.714Z,985.39
2019-02-10T12:01:36.735Z,985.30
2019-02-10T12:02:38.256Z,985.36
2019-02-10T12:03:36.769Z,985.32
2019-02-10T12:04:36.790Z,985.38
2019-02-10T12:05:36.918Z,985.32
2019-02-10T12:06:36.853Z,985.39
2019-02-10T12:07:36.857Z,985.48
2019-02-10T12:08:36.872Z,985.54
2019-02-10T12:09:36.875Z,985.57
2019-02-10T12:10:36.894Z,985.80
2019-02-10T12:11:36.912Z,985.48
2019-02-10T12:12:36.938Z,985.59
2019-02-10T12:13:39.144Z,985.62
2019-02-10T12:14:36.973Z,985.86
2019-02-10T12:15:37.055Z,985.88
2019-02-10T12:16:37.029Z,985.94
2019-02-10T12:17:37.026Z,985.80
2019-02-10T12:18:37.050Z,985.71
2019-02-10T12:19:37.058Z,985.63
2019-02-10T12:20:37.076Z,985.88
2019-02-10T12:21:37.101Z,985.81
2019-02-10T12:22:37.240Z,985.71
2019-02-10T12:23:37.143Z,985.70
2019-02-10T12:24:37.147Z,985.74
2019-02-10T12:25:37.227Z,985.73
2019-02-10T12:26:37.201Z,985.90
2019-02-10T12:27:37.206Z,985.76
2019-02-10T12:28:37.225Z,985.78
2019-02-10T12:29:37.246Z,985.55
2019-02-10T12:30:37.261Z,985.58
2019-02-10T12:31:37.280Z,985.79